sensor_id;sensor_type;location;lat;lon;timestamp;temperature;humidity
39315;DHT22;28703;44.412;11.918;2024-03-02T00:02:19;12.20;99.90
39315;DHT22;28703;44.412;11.918;2024-03-02T00:04:45;12.20;99.90
39315;DHT22;28703;44.412;11.918;2024-03-02T00:07:14;12.20;99.90
39315;DHT22;28703;44.412;11.918;2024-03-02T00:09:39;12.20;99.90
39315;DHT22;28703;44.412;11.918;2024-03-02T00:12:05;12.20;99.90
39315;DHT22;28703;44.412;11.918;2024-03-02T00:14:31;12.20;99.90
39315;DHT22;28703;44.412;11.918;2024-03-02T00:16:57;12.20;99.90
39315;DHT22;28703;44.412;11.918;2024-03-02T00:19:24;12.10;99.90
39315;DHT22;28703;44.412;11.918;2024-03-02T00:21:50;12.20;99.90
39315;DHT22;28703;44.412;11.918;2024-03-02T00:24:25;12.20;99.90
39315;DHT22;28703;44.412;11.918;2024-03-02T00:26:54;12.20;99.90
39315;DHT22;28703;44.412;11.918;2024-03-02T00:29:20;12.10;99.90
39315;DHT22;28703;44.412;11.918;2024-03-02T00:31:46;12.20;99.90
39315;DHT22;28703;44.412;11.918;2024-03-02T00:34:14;12.20;99.90
39315;DHT22;28703;44.412;11.918;2024-03-02T00:36:41;12.20;99.90
39315;DHT22;28703;44.412;11.918;2024-03-02T00:39:07;12.10;99.90
39315;DHT22;28703;44.412;11.918;2024-03-02T00:41:33;12.20;99.90
39315;DHT22;28703;44.412;11.918;2024-03-02T00:44:11;12.20;99.90
39315;DHT22;28703;44.412;11.918;2024-03-02T00:46:39;12.20;99.90
39315;DHT22;28703;44.412;11.918;2024-03-02T00:49:11;12.20;99.90
39315;DHT22;28703;44.412;11.918;2024-03-02T00:51:39;12.20;99.90
39315;DHT22;28703;44.412;11.918;2024-03-02T00:54:07;12.10;99.90
39315;DHT22;28703;44.412;11.918;2024-03-02T00:56:33;12.20;99.90
39315;DHT22;28703;44.412;11.918;2024-03-02T00:59:00;12.20;99.90
39315;DHT22;28703;44.412;11.918;2024-03-02T01:01:26;12.10;99.90
39315;DHT22;28703;44.412;11.918;2024-03-02T01:03:52;12.10;99.90
39315;DHT22;28703;44.412;11.918;2024-03-02T01:06:18;12.10;99.90
39315;DHT22;28703;44.412;11.918;2024-03-02T01:08:44;12.20;99.90
39315;DHT22;28703;44.412;11.918;2024-03-02T01:11:10;12.20;99.90
39315;DHT22;28703;44.412;11.918;2024-03-02T01:13:36;12.20;99.90
39315;DHT22;28703;44.412;11.918;2024-03-02T01:16:02;12.10;99.90
39315;DHT22;28703;44.412;11.918;2024-03-02T01:18:29;12.10;99.90
39315;DHT22;28703;44.412;11.918;2024-03-02T01:20:56;12.20;99.90
39315;DHT22;28703;44.412;11.918;2024-03-02T01:23:23;12.20;99.90
39315;DHT22;28703;44.412;11.918;2024-03-02T01:25:49;12.10;99.90
39315;DHT22;28703;44.412;11.918;2024-03-02T01:28:15;12.10;99.90
39315;DHT22;28703;44.412;11.918;2024-03-02T01:30:41;12.10;99.90
39315;DHT22;28703;44.412;11.918;2024-03-02T01:33:07;12.10;99.90
39315;DHT22;28703;44.412;11.918;2024-03-02T01:35:33;12.10;99.90
39315;DHT22;28703;44.412;11.918;2024-03-02T01:38:00;12.10;99.90
39315;DHT22;28703;44.412;11.918;2024-03-02T01:40:26;12.10;99.90
39315;DHT22;28703;44.412;11.918;2024-03-02T01:42:53;12.10;99.90
39315;DHT22;28703;44.412;11.918;2024-03-02T01:45:24;12.10;99.90
39315;DHT22;28703;44.412;11.918;2024-03-02T01:47:49;12.10;99.90
39315;DHT22;28703;44.412;11.918;2024-03-02T01:50:24;12.00;99.90
39315;DHT22;28703;44.412;11.918;2024-03-02T01:52:50;12.00;99.90
39315;DHT22;28703;44.412;11.918;2024-03-02T01:55:16;12.00;99.90
39315;DHT22;28703;44.412;11.918;2024-03-02T01:57:42;12.00;99.90
39315;DHT22;28703;44.412;11.918;2024-03-02T02:00:10;12.00;99.90
39315;DHT22;28703;44.412;11.918;2024-03-02T02:02:39;12.00;99.90
39315;DHT22;28703;44.412;11.918;2024-03-02T02:05:05;12.00;99.90
39315;DHT22;28703;44.412;11.918;2024-03-02T02:07:31;12.00;99.90
39315;DHT22;28703;44.412;11.918;2024-03-02T02:09:57;12.10;99.90
39315;DHT22;28703;44.412;11.918;2024-03-02T02:12:23;12.10;99.90
39315;DHT22;28703;44.412;11.918;2024-03-02T02:14:50;12.10;99.90
39315;DHT22;28703;44.412;11.918;2024-03-02T02:17:16;12.10;99.90
39315;DHT22;28703;44.412;11.918;2024-03-02T02:19:42;12.10;99.90
39315;DHT22;28703;44.412;11.918;2024-03-02T02:22:09;12.10;99.90
39315;DHT22;28703;44.412;11.918;2024-03-02T02:24:35;12.10;99.90
39315;DHT22;28703;44.412;11.918;2024-03-02T02:27:01;12.10;99.90
39315;DHT22;28703;44.412;11.918;2024-03-02T02:29:26;12.10;99.90
39315;DHT22;28703;44.412;11.918;2024-03-02T02:31:52;12.10;99.90
39315;DHT22;28703;44.412;11.918;2024-03-02T02:34:18;12.10;99.90
39315;DHT22;28703;44.412;11.918;2024-03-02T02:36:44;12.10;99.90
39315;DHT22;28703;44.412;11.918;2024-03-02T02:39:13;12.10;99.90
39315;DHT22;28703;44.412;11.918;2024-03-02T02:41:40;12.10;99.90
39315;DHT22;28703;44.412;11.918;2024-03-02T02:44:06;12.00;99.90
39315;DHT22;28703;44.412;11.918;2024-03-02T02:46:31;12.00;99.90
39315;DHT22;28703;44.412;11.918;2024-03-02T02:48:57;12.00;99.90
39315;DHT22;28703;44.412;11.918;2024-03-02T02:51:23;12.00;99.90
39315;DHT22;28703;44.412;11.918;2024-03-02T02:53:51;12.00;99.90
39315;DHT22;28703;44.412;11.918;2024-03-02T02:56:16;12.00;99.90
39315;DHT22;28703;44.412;11.918;2024-03-02T02:58:42;11.90;99.90
39315;DHT22;28703;44.412;11.918;2024-03-02T03:01:08;11.90;99.90
39315;DHT22;28703;44.412;11.918;2024-03-02T03:03:34;12.00;99.90
39315;DHT22;28703;44.412;11.918;2024-03-02T03:06:00;12.00;99.90
39315;DHT22;28703;44.412;11.918;2024-03-02T03:08:25;12.00;99.90
39315;DHT22;28703;44.412;11.918;2024-03-02T03:10:51;12.00;99.90
39315;DHT22;28703;44.412;11.918;2024-03-02T03:13:17;12.00;99.90
39315;DHT22;28703;44.412;11.918;2024-03-02T03:15:43;11.90;99.90
39315;DHT22;28703;44.412;11.918;2024-03-02T03:18:09;12.00;99.90
39315;DHT22;28703;44.412;11.918;2024-03-02T03:20:36;11.90;99.90
39315;DHT22;28703;44.412;11.918;2024-03-02T03:23:02;11.90;99.90
39315;DHT22;28703;44.412;11.918;2024-03-02T03:25:29;11.90;99.90
39315;DHT22;28703;44.412;11.918;2024-03-02T03:27:55;11.90;99.90
39315;DHT22;28703;44.412;11.918;2024-03-02T03:30:21;11.90;99.90
39315;DHT22;28703;44.412;11.918;2024-03-02T03:32:47;11.90;99.90
39315;DHT22;28703;44.412;11.918;2024-03-02T03:35:14;11.90;99.90
39315;DHT22;28703;44.412;11.918;2024-03-02T03:37:44;11.90;99.90
39315;DHT22;28703;44.412;11.918;2024-03-02T03:40:10;11.80;99.90
39315;DHT22;28703;44.412;11.918;2024-03-02T03:42:36;11.90;99.90
39315;DHT22;28703;44.412;11.918;2024-03-02T03:45:03;11.80;99.90
39315;DHT22;28703;44.412;11.918;2024-03-02T03:47:29;11.80;99.90
39315;DHT22;28703;44.412;11.918;2024-03-02T03:49:54;11.80;99.90
39315;DHT22;28703;44.412;11.918;2024-03-02T03:52:20;11.80;99.90
39315;DHT22;28703;44.412;11.918;2024-03-02T03:54:46;11.80;99.90
39315;DHT22;28703;44.412;11.918;2024-03-02T03:57:12;11.80;99.90
39315;DHT22;28703;44.412;11.918;2024-03-02T03:59:38;11.80;99.90
39315;DHT22;28703;44.412;11.918;2024-03-02T04:02:04;11.80;99.90
39315;DHT22;28703;44.412;11.918;2024-03-02T04:04:30;11.80;99.90
39315;DHT22;28703;44.412;11.918;2024-03-02T04:06:55;11.70;99.90
39315;DHT22;28703;44.412;11.918;2024-03-02T04:09:21;11.70;99.90
39315;DHT22;28703;44.412;11.918;2024-03-02T04:11:47;11.70;99.90
39315;DHT22;28703;44.412;11.918;2024-03-02T04:14:13;11.70;99.90
39315;DHT22;28703;44.412;11.918;2024-03-02T04:16:39;11.70;99.90
39315;DHT22;28703;44.412;11.918;2024-03-02T04:19:04;11.70;99.90
39315;DHT22;28703;44.412;11.918;2024-03-02T04:21:30;11.70;99.90
39315;DHT22;28703;44.412;11.918;2024-03-02T04:23:56;11.60;99.90
39315;DHT22;28703;44.412;11.918;2024-03-02T04:26:25;11.60;99.90
39315;DHT22;28703;44.412;11.918;2024-03-02T04:28:55;11.60;99.90
39315;DHT22;28703;44.412;11.918;2024-03-02T04:31:21;11.60;99.90
39315;DHT22;28703;44.412;11.918;2024-03-02T04:33:47;11.60;99.90
39315;DHT22;28703;44.412;11.918;2024-03-02T04:36:12;11.60;99.90
39315;DHT22;28703;44.412;11.918;2024-03-02T04:38:38;11.60;99.90
39315;DHT22;28703;44.412;11.918;2024-03-02T04:41:05;11.60;99.90
39315;DHT22;28703;44.412;11.918;2024-03-02T04:43:34;11.60;99.90
39315;DHT22;28703;44.412;11.918;2024-03-02T04:46:00;11.60;99.90
39315;DHT22;28703;44.412;11.918;2024-03-02T04:48:26;11.60;99.90
39315;DHT22;28703;44.412;11.918;2024-03-02T04:50:52;11.60;99.90
39315;DHT22;28703;44.412;11.918;2024-03-02T04:53:18;11.50;99.90
39315;DHT22;28703;44.412;11.918;2024-03-02T04:55:44;11.50;99.90
39315;DHT22;28703;44.412;11.918;2024-03-02T04:58:09;11.50;99.90
39315;DHT22;28703;44.412;11.918;2024-03-02T05:00:35;11.50;99.90
39315;DHT22;28703;44.412;11.918;2024-03-02T05:03:01;11.50;99.90
39315;DHT22;28703;44.412;11.918;2024-03-02T05:05:27;11.50;99.90
39315;DHT22;28703;44.412;11.918;2024-03-02T05:07:53;11.50;99.90
39315;DHT22;28703;44.412;11.918;2024-03-02T05:10:19;11.50;99.90
39315;DHT22;28703;44.412;11.918;2024-03-02T05:12:45;11.60;99.90
39315;DHT22;28703;44.412;11.918;2024-03-02T05:15:14;11.60;99.90
39315;DHT22;28703;44.412;11.918;2024-03-02T05:17:40;11.60;99.90
39315;DHT22;28703;44.412;11.918;2024-03-02T05:20:09;11.60;99.90
39315;DHT22;28703;44.412;11.918;2024-03-02T05:22:35;11.60;99.90
39315;DHT22;28703;44.412;11.918;2024-03-02T05:25:02;11.60;99.90
39315;DHT22;28703;44.412;11.918;2024-03-02T05:27:28;11.60;99.90
39315;DHT22;28703;44.412;11.918;2024-03-02T05:29:54;11.50;99.90
39315;DHT22;28703;44.412;11.918;2024-03-02T05:32:20;11.60;99.90
39315;DHT22;28703;44.412;11.918;2024-03-02T05:34:46;11.50;99.90
39315;DHT22;28703;44.412;11.918;2024-03-02T05:37:12;11.50;99.90
39315;DHT22;28703;44.412;11.918;2024-03-02T05:39:37;11.60;99.90
39315;DHT22;28703;44.412;11.918;2024-03-02T05:42:03;11.50;99.90
39315;DHT22;28703;44.412;11.918;2024-03-02T05:44:29;11.60;99.90
39315;DHT22;28703;44.412;11.918;2024-03-02T05:46:55;11.60;99.90
39315;DHT22;28703;44.412;11.918;2024-03-02T05:49:21;11.60;99.90
39315;DHT22;28703;44.412;11.918;2024-03-02T05:51:47;11.60;99.90
39315;DHT22;28703;44.412;11.918;2024-03-02T05:54:13;11.60;99.90
39315;DHT22;28703;44.412;11.918;2024-03-02T05:56:39;11.60;99.90
39315;DHT22;28703;44.412;11.918;2024-03-02T05:59:05;11.70;99.90
39315;DHT22;28703;44.412;11.918;2024-03-02T06:01:41;11.70;99.90
39315;DHT22;28703;44.412;11.918;2024-03-02T06:04:09;11.70;99.90
39315;DHT22;28703;44.412;11.918;2024-03-02T06:06:35;11.70;99.90
39315;DHT22;28703;44.412;11.918;2024-03-02T06:09:01;11.80;99.90
39315;DHT22;28703;44.412;11.918;2024-03-02T06:11:28;11.80;99.90
39315;DHT22;28703;44.412;11.918;2024-03-02T06:13:54;11.80;99.90
39315;DHT22;28703;44.412;11.918;2024-03-02T06:16:19;11.80;99.90
39315;DHT22;28703;44.412;11.918;2024-03-02T06:18:45;11.80;99.90
39315;DHT22;28703;44.412;11.918;2024-03-02T06:21:11;11.80;99.90
39315;DHT22;28703;44.412;11.918;2024-03-02T06:23:36;11.80;99.90
39315;DHT22;28703;44.412;11.918;2024-03-02T06:26:02;11.80;99.90
39315;DHT22;28703;44.412;11.918;2024-03-02T06:28:28;11.80;99.90
39315;DHT22;28703;44.412;11.918;2024-03-02T06:30:54;11.80;99.90
39315;DHT22;28703;44.412;11.918;2024-03-02T06:33:20;11.80;99.90
39315;DHT22;28703;44.412;11.918;2024-03-02T06:35:46;11.80;99.90
39315;DHT22;28703;44.412;11.918;2024-03-02T06:38:11;11.80;99.90
39315;DHT22;28703;44.412;11.918;2024-03-02T06:40:37;11.80;99.90
39315;DHT22;28703;44.412;11.918;2024-03-02T06:43:05;11.80;99.90
39315;DHT22;28703;44.412;11.918;2024-03-02T06:45:30;11.80;99.90
39315;DHT22;28703;44.412;11.918;2024-03-02T06:47:56;11.80;99.90
39315;DHT22;28703;44.412;11.918;2024-03-02T06:50:22;11.80;99.90
39315;DHT22;28703;44.412;11.918;2024-03-02T06:52:48;11.80;99.90
39315;DHT22;28703;44.412;11.918;2024-03-02T06:55:13;11.80;99.90
39315;DHT22;28703;44.412;11.918;2024-03-02T06:57:39;11.80;99.90
39315;DHT22;28703;44.412;11.918;2024-03-02T07:00:05;11.90;99.90
39315;DHT22;28703;44.412;11.918;2024-03-02T07:02:34;11.80;99.90
39315;DHT22;28703;44.412;11.918;2024-03-02T07:05:02;11.90;99.90
39315;DHT22;28703;44.412;11.918;2024-03-02T07:07:27;11.90;99.90
39315;DHT22;28703;44.412;11.918;2024-03-02T07:09:53;11.90;99.90
39315;DHT22;28703;44.412;11.918;2024-03-02T07:12:19;11.90;99.90
39315;DHT22;28703;44.412;11.918;2024-03-02T07:14:44;11.90;99.90
39315;DHT22;28703;44.412;11.918;2024-03-02T07:17:29;11.90;99.90
39315;DHT22;28703;44.412;11.918;2024-03-02T07:19:55;11.90;99.90
39315;DHT22;28703;44.412;11.918;2024-03-02T07:22:20;11.90;99.90
39315;DHT22;28703;44.412;11.918;2024-03-02T07:24:46;11.90;99.90
39315;DHT22;28703;44.412;11.918;2024-03-02T07:27:13;12.00;99.90
39315;DHT22;28703;44.412;11.918;2024-03-02T07:29:39;12.00;99.90
39315;DHT22;28703;44.412;11.918;2024-03-02T07:32:08;12.00;99.90
39315;DHT22;28703;44.412;11.918;2024-03-02T07:34:34;12.00;99.90
39315;DHT22;28703;44.412;11.918;2024-03-02T07:37:00;12.00;99.90
39315;DHT22;28703;44.412;11.918;2024-03-02T07:39:26;12.00;99.90
39315;DHT22;28703;44.412;11.918;2024-03-02T07:41:52;12.00;99.90
39315;DHT22;28703;44.412;11.918;2024-03-02T07:44:18;12.10;99.90
39315;DHT22;28703;44.412;11.918;2024-03-02T07:46:48;12.10;99.90
39315;DHT22;28703;44.412;11.918;2024-03-02T07:49:16;12.10;99.90
39315;DHT22;28703;44.412;11.918;2024-03-02T07:51:42;12.10;99.90
39315;DHT22;28703;44.412;11.918;2024-03-02T07:54:08;12.10;99.90
39315;DHT22;28703;44.412;11.918;2024-03-02T07:56:34;12.10;99.90
39315;DHT22;28703;44.412;11.918;2024-03-02T07:59:01;12.20;99.90
39315;DHT22;28703;44.412;11.918;2024-03-02T08:01:31;12.20;99.90
39315;DHT22;28703;44.412;11.918;2024-03-02T08:04:01;12.20;99.90
39315;DHT22;28703;44.412;11.918;2024-03-02T08:06:28;12.30;99.90
39315;DHT22;28703;44.412;11.918;2024-03-02T08:08:55;12.30;99.90
39315;DHT22;28703;44.412;11.918;2024-03-02T08:11:21;12.30;99.90
39315;DHT22;28703;44.412;11.918;2024-03-02T08:13:48;12.30;99.90
39315;DHT22;28703;44.412;11.918;2024-03-02T08:16:18;12.40;99.90
39315;DHT22;28703;44.412;11.918;2024-03-02T08:18:48;12.40;99.90
39315;DHT22;28703;44.412;11.918;2024-03-02T08:21:14;12.40;99.90
39315;DHT22;28703;44.412;11.918;2024-03-02T08:23:40;12.40;99.90
39315;DHT22;28703;44.412;11.918;2024-03-02T08:26:11;12.40;99.90
39315;DHT22;28703;44.412;11.918;2024-03-02T08:28:37;12.50;99.90
39315;DHT22;28703;44.412;11.918;2024-03-02T08:31:06;12.50;99.90
39315;DHT22;28703;44.412;11.918;2024-03-02T08:33:32;12.50;99.90
39315;DHT22;28703;44.412;11.918;2024-03-02T08:35:59;12.50;99.90
39315;DHT22;28703;44.412;11.918;2024-03-02T08:38:24;12.50;99.90
39315;DHT22;28703;44.412;11.918;2024-03-02T08:40:50;12.50;99.90
39315;DHT22;28703;44.412;11.918;2024-03-02T08:43:16;12.60;99.90
39315;DHT22;28703;44.412;11.918;2024-03-02T08:45:42;12.60;99.90
39315;DHT22;28703;44.412;11.918;2024-03-02T08:48:08;12.60;99.90
39315;DHT22;28703;44.412;11.918;2024-03-02T08:50:35;12.60;99.90
39315;DHT22;28703;44.412;11.918;2024-03-02T08:53:00;12.60;99.90
39315;DHT22;28703;44.412;11.918;2024-03-02T08:55:26;12.70;99.90
39315;DHT22;28703;44.412;11.918;2024-03-02T08:57:52;12.70;99.90
39315;DHT22;28703;44.412;11.918;2024-03-02T09:00:18;12.70;99.90
39315;DHT22;28703;44.412;11.918;2024-03-02T09:02:45;12.70;99.90
39315;DHT22;28703;44.412;11.918;2024-03-02T09:05:11;12.70;99.90
39315;DHT22;28703;44.412;11.918;2024-03-02T09:07:36;12.70;99.90
39315;DHT22;28703;44.412;11.918;2024-03-02T09:10:05;12.70;99.90
39315;DHT22;28703;44.412;11.918;2024-03-02T09:12:32;12.70;99.90
39315;DHT22;28703;44.412;11.918;2024-03-02T09:14:58;12.80;99.90
39315;DHT22;28703;44.412;11.918;2024-03-02T09:17:24;12.80;99.90
39315;DHT22;28703;44.412;11.918;2024-03-02T09:19:50;12.90;99.90
39315;DHT22;28703;44.412;11.918;2024-03-02T09:22:19;12.90;99.90
39315;DHT22;28703;44.412;11.918;2024-03-02T09:24:44;12.90;99.90
39315;DHT22;28703;44.412;11.918;2024-03-02T09:27:10;12.90;99.90
39315;DHT22;28703;44.412;11.918;2024-03-02T09:29:36;13.00;99.90
39315;DHT22;28703;44.412;11.918;2024-03-02T09:32:02;13.00;99.90
39315;DHT22;28703;44.412;11.918;2024-03-02T09:34:28;13.00;99.90
39315;DHT22;28703;44.412;11.918;2024-03-02T09:36:54;13.10;99.90
39315;DHT22;28703;44.412;11.918;2024-03-02T09:39:19;13.10;99.90
39315;DHT22;28703;44.412;11.918;2024-03-02T09:41:45;13.20;99.90
39315;DHT22;28703;44.412;11.918;2024-03-02T09:44:12;13.30;99.90
39315;DHT22;28703;44.412;11.918;2024-03-02T09:46:38;13.30;99.90
39315;DHT22;28703;44.412;11.918;2024-03-02T09:49:04;13.40;99.90
39315;DHT22;28703;44.412;11.918;2024-03-02T09:51:31;13.50;99.90
39315;DHT22;28703;44.412;11.918;2024-03-02T09:53:57;13.60;99.90
39315;DHT22;28703;44.412;11.918;2024-03-02T09:56:23;13.70;99.90
39315;DHT22;28703;44.412;11.918;2024-03-02T09:58:49;13.70;99.90
39315;DHT22;28703;44.412;11.918;2024-03-02T10:01:14;13.80;99.90
39315;DHT22;28703;44.412;11.918;2024-03-02T10:03:40;13.80;99.90
39315;DHT22;28703;44.412;11.918;2024-03-02T10:06:26;13.80;99.90
39315;DHT22;28703;44.412;11.918;2024-03-02T10:08:52;13.90;99.90
39315;DHT22;28703;44.412;11.918;2024-03-02T10:11:33;13.90;99.90
39315;DHT22;28703;44.412;11.918;2024-03-02T10:14:06;14.00;99.90
39315;DHT22;28703;44.412;11.918;2024-03-02T10:16:36;14.00;99.90
39315;DHT22;28703;44.412;11.918;2024-03-02T10:19:20;14.00;99.90
39315;DHT22;28703;44.412;11.918;2024-03-02T10:21:46;14.10;99.90
39315;DHT22;28703;44.412;11.918;2024-03-02T10:24:12;14.10;99.90
39315;DHT22;28703;44.412;11.918;2024-03-02T10:26:39;14.10;99.90
39315;DHT22;28703;44.412;11.918;2024-03-02T10:29:05;14.00;99.90
39315;DHT22;28703;44.412;11.918;2024-03-02T10:31:30;14.00;99.90
39315;DHT22;28703;44.412;11.918;2024-03-02T10:33:57;14.00;99.90
39315;DHT22;28703;44.412;11.918;2024-03-02T10:36:23;14.10;99.90
39315;DHT22;28703;44.412;11.918;2024-03-02T10:38:51;14.00;99.90
39315;DHT22;28703;44.412;11.918;2024-03-02T10:41:23;14.00;99.90
39315;DHT22;28703;44.412;11.918;2024-03-02T10:43:52;14.00;99.90
39315;DHT22;28703;44.412;11.918;2024-03-02T10:46:22;14.00;99.90
39315;DHT22;28703;44.412;11.918;2024-03-02T10:48:49;14.00;99.90
39315;DHT22;28703;44.412;11.918;2024-03-02T10:51:15;14.00;99.90
39315;DHT22;28703;44.412;11.918;2024-03-02T10:53:41;14.10;99.90
39315;DHT22;28703;44.412;11.918;2024-03-02T10:56:07;14.10;99.90
39315;DHT22;28703;44.412;11.918;2024-03-02T10:58:36;14.10;99.90
39315;DHT22;28703;44.412;11.918;2024-03-02T11:01:03;14.20;99.90
39315;DHT22;28703;44.412;11.918;2024-03-02T11:03:35;14.30;99.90
39315;DHT22;28703;44.412;11.918;2024-03-02T11:06:03;14.40;99.90
39315;DHT22;28703;44.412;11.918;2024-03-02T11:08:34;14.40;99.90
39315;DHT22;28703;44.412;11.918;2024-03-02T11:11:15;14.50;99.90
39315;DHT22;28703;44.412;11.918;2024-03-02T11:13:47;14.50;99.90
39315;DHT22;28703;44.412;11.918;2024-03-02T11:16:37;14.50;99.90
39315;DHT22;28703;44.412;11.918;2024-03-02T11:19:05;14.60;99.90
39315;DHT22;28703;44.412;11.918;2024-03-02T11:21:35;14.60;99.90
39315;DHT22;28703;44.412;11.918;2024-03-02T11:24:27;14.50;99.90
39315;DHT22;28703;44.412;11.918;2024-03-02T11:26:46;14.50;99.90
39315;DHT22;28703;44.412;11.918;2024-03-02T11:32:22;14.50;99.90
39315;DHT22;28703;44.412;11.918;2024-03-02T11:34:50;14.50;99.90
39315;DHT22;28703;44.412;11.918;2024-03-02T11:37:17;14.40;99.90
39315;DHT22;28703;44.412;11.918;2024-03-02T11:39:44;14.50;99.90
39315;DHT22;28703;44.412;11.918;2024-03-02T11:42:14;14.50;99.90
39315;DHT22;28703;44.412;11.918;2024-03-02T11:44:43;14.50;99.90
39315;DHT22;28703;44.412;11.918;2024-03-02T11:47:12;14.60;99.90
39315;DHT22;28703;44.412;11.918;2024-03-02T11:49:42;14.50;99.90
39315;DHT22;28703;44.412;11.918;2024-03-02T11:52:10;14.50;99.90
39315;DHT22;28703;44.412;11.918;2024-03-02T11:54:41;14.60;99.90
39315;DHT22;28703;44.412;11.918;2024-03-02T11:57:16;14.70;99.90
39315;DHT22;28703;44.412;11.918;2024-03-02T11:59:42;14.70;99.90
39315;DHT22;28703;44.412;11.918;2024-03-02T12:02:15;14.70;99.90
39315;DHT22;28703;44.412;11.918;2024-03-02T12:04:42;14.90;99.90
39315;DHT22;28703;44.412;11.918;2024-03-02T12:07:09;14.90;99.90
39315;DHT22;28703;44.412;11.918;2024-03-02T12:09:35;15.00;99.90
39315;DHT22;28703;44.412;11.918;2024-03-02T12:12:08;15.30;99.90
39315;DHT22;28703;44.412;11.918;2024-03-02T12:14:36;15.50;99.90
39315;DHT22;28703;44.412;11.918;2024-03-02T12:17:03;15.60;99.90
39315;DHT22;28703;44.412;11.918;2024-03-02T12:19:30;15.80;99.90
39315;DHT22;28703;44.412;11.918;2024-03-02T12:21:57;15.80;99.90
39315;DHT22;28703;44.412;11.918;2024-03-02T12:24:23;15.90;99.90
39315;DHT22;28703;44.412;11.918;2024-03-02T12:26:50;15.90;99.90
39315;DHT22;28703;44.412;11.918;2024-03-02T12:29:21;15.90;99.90
39315;DHT22;28703;44.412;11.918;2024-03-02T12:31:53;15.90;99.90
39315;DHT22;28703;44.412;11.918;2024-03-02T12:34:19;15.80;99.90
39315;DHT22;28703;44.412;11.918;2024-03-02T12:36:48;15.70;99.90
39315;DHT22;28703;44.412;11.918;2024-03-02T12:39:19;15.70;99.90
39315;DHT22;28703;44.412;11.918;2024-03-02T12:41:46;15.70;99.90
39315;DHT22;28703;44.412;11.918;2024-03-02T12:44:11;15.70;99.90
39315;DHT22;28703;44.412;11.918;2024-03-02T12:46:38;15.60;99.90
39315;DHT22;28703;44.412;11.918;2024-03-02T12:49:12;15.70;99.90
39315;DHT22;28703;44.412;11.918;2024-03-02T12:51:39;15.70;99.90
39315;DHT22;28703;44.412;11.918;2024-03-02T12:54:09;15.80;99.90
39315;DHT22;28703;44.412;11.918;2024-03-02T12:56:37;16.00;99.90
39315;DHT22;28703;44.412;11.918;2024-03-02T12:59:04;16.10;99.90
39315;DHT22;28703;44.412;11.918;2024-03-02T13:01:30;16.20;99.90
39315;DHT22;28703;44.412;11.918;2024-03-02T13:03:58;16.30;99.90
39315;DHT22;28703;44.412;11.918;2024-03-02T13:06:25;16.40;99.90
39315;DHT22;28703;44.412;11.918;2024-03-02T13:08:54;16.50;99.90
39315;DHT22;28703;44.412;11.918;2024-03-02T13:11:24;16.60;99.90
39315;DHT22;28703;44.412;11.918;2024-03-02T13:13:51;16.50;99.90
39315;DHT22;28703;44.412;11.918;2024-03-02T13:16:18;16.50;99.90
39315;DHT22;28703;44.412;11.918;2024-03-02T13:18:44;16.40;99.90
39315;DHT22;28703;44.412;11.918;2024-03-02T13:21:10;16.40;99.90
39315;DHT22;28703;44.412;11.918;2024-03-02T13:23:36;16.40;99.90
39315;DHT22;28703;44.412;11.918;2024-03-02T13:26:02;16.40;99.90
39315;DHT22;28703;44.412;11.918;2024-03-02T13:28:28;16.50;99.90
39315;DHT22;28703;44.412;11.918;2024-03-02T13:30:53;16.50;99.90
39315;DHT22;28703;44.412;11.918;2024-03-02T13:33:19;16.50;99.90
39315;DHT22;28703;44.412;11.918;2024-03-02T13:35:51;16.50;99.90
39315;DHT22;28703;44.412;11.918;2024-03-02T13:38:18;16.50;99.90
39315;DHT22;28703;44.412;11.918;2024-03-02T13:40:45;16.50;99.90
39315;DHT22;28703;44.412;11.918;2024-03-02T13:43:11;16.50;99.90
39315;DHT22;28703;44.412;11.918;2024-03-02T13:45:38;16.40;99.90
39315;DHT22;28703;44.412;11.918;2024-03-02T13:48:04;16.30;99.90
39315;DHT22;28703;44.412;11.918;2024-03-02T13:50:30;16.30;99.90
39315;DHT22;28703;44.412;11.918;2024-03-02T13:52:56;16.30;99.90
39315;DHT22;28703;44.412;11.918;2024-03-02T13:55:22;16.30;99.90
39315;DHT22;28703;44.412;11.918;2024-03-02T13:57:48;16.30;99.90
39315;DHT22;28703;44.412;11.918;2024-03-02T14:00:16;16.30;99.90
39315;DHT22;28703;44.412;11.918;2024-03-02T14:02:43;16.30;99.90
39315;DHT22;28703;44.412;11.918;2024-03-02T14:05:09;16.30;99.90
39315;DHT22;28703;44.412;11.918;2024-03-02T14:07:41;16.30;99.90
39315;DHT22;28703;44.412;11.918;2024-03-02T14:10:07;16.30;99.90
39315;DHT22;28703;44.412;11.918;2024-03-02T14:12:33;16.20;99.90
39315;DHT22;28703;44.412;11.918;2024-03-02T14:14:59;16.20;99.90
39315;DHT22;28703;44.412;11.918;2024-03-02T14:17:27;16.10;99.90
39315;DHT22;28703;44.412;11.918;2024-03-02T14:19:53;16.10;99.90
39315;DHT22;28703;44.412;11.918;2024-03-02T14:22:22;16.00;99.90
39315;DHT22;28703;44.412;11.918;2024-03-02T14:24:48;16.00;99.90
39315;DHT22;28703;44.412;11.918;2024-03-02T14:27:14;15.90;99.90
39315;DHT22;28703;44.412;11.918;2024-03-02T14:29:42;15.90;99.90
39315;DHT22;28703;44.412;11.918;2024-03-02T14:32:08;15.90;99.90
39315;DHT22;28703;44.412;11.918;2024-03-02T14:34:34;15.90;99.90
39315;DHT22;28703;44.412;11.918;2024-03-02T14:37:00;15.80;99.90
39315;DHT22;28703;44.412;11.918;2024-03-02T14:39:26;15.80;99.90
39315;DHT22;28703;44.412;11.918;2024-03-02T14:41:52;15.80;99.90
39315;DHT22;28703;44.412;11.918;2024-03-02T14:44:18;15.90;99.90
39315;DHT22;28703;44.412;11.918;2024-03-02T14:46:46;16.00;99.90
39315;DHT22;28703;44.412;11.918;2024-03-02T14:49:13;16.00;99.90
39315;DHT22;28703;44.412;11.918;2024-03-02T14:51:39;16.00;99.90
39315;DHT22;28703;44.412;11.918;2024-03-02T14:54:04;16.00;99.90
39315;DHT22;28703;44.412;11.918;2024-03-02T14:56:30;16.00;99.90
39315;DHT22;28703;44.412;11.918;2024-03-02T14:58:56;16.00;99.90
39315;DHT22;28703;44.412;11.918;2024-03-02T15:01:22;15.90;99.90
39315;DHT22;28703;44.412;11.918;2024-03-02T15:03:51;15.90;99.90
39315;DHT22;28703;44.412;11.918;2024-03-02T15:06:17;15.90;99.90
39315;DHT22;28703;44.412;11.918;2024-03-02T15:08:43;15.90;99.90
39315;DHT22;28703;44.412;11.918;2024-03-02T15:11:11;15.90;99.90
39315;DHT22;28703;44.412;11.918;2024-03-02T15:13:38;15.90;99.90
39315;DHT22;28703;44.412;11.918;2024-03-02T15:16:04;15.90;99.90
39315;DHT22;28703;44.412;11.918;2024-03-02T15:18:29;15.80;99.90